createdAt,value
2019-03-19T00:00:34.948Z,0
2019-03-19T00:01:36.419Z,0
2019-03-19T00:02:38.192Z,0
2019-03-19T00:03:39.735Z,0
2019-03-19T00:04:41.523Z,0
2019-03-19T00:05:43.043Z,0
2019-03-19T00:06:44.645Z,0
2019-03-19T00:07:46.454Z,0
2019-03-19T00:08:48.048Z,0
2019-03-19T00:09:49.621Z,0
2019-03-19T00:10:51.450Z,0
2019-03-19T00:11:52.984Z,0
2019-03-19T00:12:54.513Z,0
2019-03-19T00:13:56.355Z,0
2019-03-19T00:14:57.865Z,0
2019-03-19T00:15:59.430Z,0
2019-03-19T00:17:01.240Z,0
2019-03-19T00:18:02.785Z,0
2019-03-19T00:19:04.352Z,0
2019-03-19T00:20:06.207Z,0
2019-03-19T00:21:07.747Z,0
2019-03-19T00:22:09.349Z,0
2019-03-19T00:23:11.122Z,0
2019-03-19T00:24:13.216Z,0
2019-03-19T00:25:15.059Z,0
2019-03-19T00:26:16.601Z,0
2019-03-19T00:27:18.340Z,0
2019-03-19T00:28:19.895Z,0
2019-03-19T00:29:21.598Z,0
2019-03-19T00:30:23.143Z,0
2019-03-19T00:31:24.930Z,0
2019-03-19T00:32:26.450Z,0
2019-03-19T00:33:28.195Z,0
2019-03-19T00:34:29.762Z,0
2019-03-19T00:35:31.516Z,0
2019-03-19T00:36:32.991Z,0
2019-03-19T00:37:34.771Z,0
2019-03-19T00:38:36.321Z,0
2019-03-19T00:39:38.070Z,0
2019-03-19T00:40:39.566Z,0
2019-03-19T00:41:41.337Z,0
2019-03-19T00:42:42.874Z,0
2019-03-19T00:43:44.632Z,0
2019-03-19T00:44:46.174Z,0
2019-03-19T00:45:48.002Z,0
2019-03-19T00:46:49.535Z,0
2019-03-19T00:47:51.033Z,0
2019-03-19T00:48:52.879Z,0
2019-03-19T00:49:54.420Z,0
2019-03-19T00:50:55.910Z,0
2019-03-19T00:51:57.595Z,0
2019-03-19T00:52:59.131Z,0
2019-03-19T00:54:00.841Z,0
2019-03-19T00:55:02.344Z,0
2019-03-19T00:56:03.981Z,0
2019-03-19T00:57:05.497Z,0
2019-03-19T00:58:07.302Z,0
2019-03-19T00:59:08.844Z,0
2019-03-19T01:00:10.596Z,0
2019-03-19T01:01:12.136Z,0
2019-03-19T01:02:13.875Z,0
2019-03-19T01:03:15.447Z,0
2019-03-19T01:04:17.164Z,0
2019-03-19T01:05:18.701Z,0
2019-03-19T01:06:20.459Z,0
2019-03-19T01:07:22.005Z,0
2019-03-19T01:08:23.545Z,0
2019-03-19T01:09:25.343Z,0
2019-03-19T01:10:26.885Z,0
2019-03-19T01:11:28.481Z,0
2019-03-19T01:12:30.099Z,0
2019-03-19T01:13:31.594Z,0
2019-03-19T01:14:33.415Z,0
2019-03-19T01:15:34.963Z,0
2019-03-19T01:16:36.687Z,0
2019-03-19T01:17:38.229Z,0
2019-03-19T01:18:39.745Z,0
2019-03-19T01:19:41.401Z,0
2019-03-19T01:20:42.927Z,0
2019-03-19T01:21:44.459Z,0
2019-03-19T01:22:46.100Z,0
2019-03-19T01:23:47.550Z,0
2019-03-19T01:24:49.234Z,0
2019-03-19T01:25:55.725Z,0
2019-03-19T01:26:52.558Z,0
2019-03-19T01:27:54.099Z,0
2019-03-19T01:28:55.656Z,0
2019-03-19T01:29:57.472Z,0
2019-03-19T01:30:58.988Z,0
2019-03-19T01:32:00.429Z,0
2019-03-19T01:33:02.178Z,0
2019-03-19T01:34:03.723Z,0
2019-03-19T01:35:05.129Z,0
2019-03-19T01:36:06.934Z,0
2019-03-19T01:37:08.476Z,0
2019-03-19T01:38:10.016Z,0
2019-03-19T01:39:11.616Z,0
2019-03-19T01:40:13.168Z,0
2019-03-19T01:41:14.706Z,0
2019-03-19T01:42:16.854Z,0
2019-03-19T01:43:18.324Z,0
2019-03-19T01:44:19.858Z,0
2019-03-19T01:45:21.533Z,0
2019-03-19T01:46:23.021Z,0
2019-03-19T01:47:24.542Z,0
2019-03-19T01:48:26.279Z,0
2019-03-19T01:49:27.850Z,0
2019-03-19T01:50:29.525Z,0
2019-03-19T01:51:31.046Z,0
2019-03-19T01:52:32.803Z,0
2019-03-19T01:53:34.372Z,0
2019-03-19T01:54:36.113Z,0
2019-03-19T01:55:37.671Z,0
2019-03-19T01:56:39.367Z,0
2019-03-19T01:57:40.886Z,0
2019-03-19T01:58:42.702Z,0
2019-03-19T01:59:44.240Z,0
2019-03-19T02:00:45.998Z,0
2019-03-19T02:01:47.625Z,0
2019-03-19T02:02:49.337Z,0
2019-03-19T02:03:50.856Z,0
2019-03-19T02:04:52.583Z,0
2019-03-19T02:05:54.164Z,0
2019-03-19T02:06:55.859Z,0
2019-03-19T02:07:57.405Z,0
2019-03-19T02:08:58.942Z,0
2019-03-19T02:10:00.563Z,0
2019-03-19T02:11:02.111Z,0
2019-03-19T02:12:03.596Z,0
2019-03-19T02:13:05.284Z,0
2019-03-19T02:14:06.827Z,0
2019-03-19T02:15:08.361Z,0
2019-03-19T02:16:10.061Z,0
2019-03-19T02:17:12.682Z,0
2019-03-19T02:18:13.181Z,0
2019-03-19T02:19:14.966Z,0
2019-03-19T02:20:16.558Z,0
2019-03-19T02:21:18.075Z,0
2019-03-19T02:22:19.788Z,0
2019-03-19T02:23:21.314Z,0
2019-03-19T02:24:23.027Z,0
2019-03-19T02:25:24.539Z,0
2019-03-19T02:26:26.330Z,0
2019-03-19T02:27:27.887Z,0
2019-03-19T02:28:29.659Z,0
2019-03-19T02:29:31.365Z,0
2019-03-19T02:30:33.010Z,0
2019-03-19T02:31:34.431Z,0
2019-03-19T02:32:36.078Z,0
2019-03-19T02:33:37.496Z,0
2019-03-19T02:34:39.165Z,0
2019-03-19T02:35:40.550Z,0
2019-03-19T02:36:42.334Z,0
2019-03-19T02:37:43.789Z,0
2019-03-19T02:38:45.252Z,0
2019-03-19T02:39:46.819Z,0
2019-03-19T02:40:48.272Z,0
2019-03-19T02:41:49.821Z,0
2019-03-19T02:42:51.504Z,0
2019-03-19T02:43:53.046Z,0
2019-03-19T02:44:54.568Z,0
2019-03-19T02:45:56.127Z,0
2019-03-19T02:46:57.810Z,0
2019-03-19T02:47:59.390Z,0
2019-03-19T02:49:00.987Z,0
2019-03-19T02:50:02.760Z,0
2019-03-19T02:51:04.272Z,0
2019-03-19T02:52:05.814Z,0
2019-03-19T02:53:07.417Z,0
2019-03-19T02:54:08.936Z,0
2019-03-19T02:55:10.442Z,0
2019-03-19T02:56:12.181Z,0
2019-03-19T02:57:13.731Z,0
2019-03-19T02:58:15.211Z,0
2019-03-19T02:59:16.872Z,0
2019-03-19T03:00:18.418Z,0
2019-03-19T03:01:19.984Z,0
2019-03-19T03:02:21.632Z,0
2019-03-19T03:03:23.196Z,0
2019-03-19T03:04:24.686Z,0
2019-03-19T03:05:26.342Z,0
2019-03-19T03:06:27.869Z,0
2019-03-19T03:07:29.332Z,0
2019-03-19T03:08:31.066Z,0
2019-03-19T03:09:32.550Z,0
2019-03-19T03:10:34.147Z,0
2019-03-19T03:11:35.709Z,0
2019-03-19T03:12:37.459Z,0
2019-03-19T03:13:39.093Z,0
2019-03-19T03:14:40.487Z,0
2019-03-19T03:15:42.199Z,0
2019-03-19T03:16:43.789Z,0
2019-03-19T03:17:45.264Z,0
2019-03-19T03:18:47.988Z,0
2019-03-19T03:19:49.491Z,0
2019-03-19T03:20:51.249Z,0
2019-03-19T03:21:52.811Z,0
2019-03-19T03:22:54.593Z,0
2019-03-19T03:23:56.108Z,0
2019-03-19T03:24:57.835Z,0
2019-03-19T03:25:59.331Z,0
2019-03-19T03:27:02.171Z,0
2019-03-19T03:28:02.653Z,0
2019-03-19T03:29:04.502Z,0
2019-03-19T03:30:05.965Z,0
2019-03-19T03:31:07.687Z,0
2019-03-19T03:32:09.201Z,0
2019-03-19T03:33:10.997Z,0
2019-03-19T03:34:12.557Z,0
2019-03-19T03:35:14.312Z,0
2019-03-19T03:36:15.799Z,0
2019-03-19T03:37:17.553Z,0
2019-03-19T03:38:19.096Z,0
2019-03-19T03:39:20.617Z,0
2019-03-19T03:40:22.350Z,0
2019-03-19T03:41:23.867Z,0
2019-03-19T03:42:25.479Z,0
2019-03-19T03:43:27.283Z,0
2019-03-19T03:44:28.885Z,0
2019-03-19T03:45:30.578Z,0
2019-03-19T03:46:32.133Z,0
2019-03-19T03:47:33.818Z,0
2019-03-19T03:48:35.382Z,0
2019-03-19T03:49:36.923Z,0
2019-03-19T03:50:38.521Z,0
2019-03-19T03:51:41.659Z,0
2019-03-19T03:52:43.008Z,0
2019-03-19T03:53:44.762Z,0
2019-03-19T03:54:46.242Z,0
2019-03-19T03:55:47.812Z,0
2019-03-19T03:57:01.199Z,0
2019-03-19T03:57:50.890Z,0
2019-03-19T03:59:00.668Z,0
2019-03-19T03:59:54.198Z,0
2019-03-19T04:00:55.744Z,0
2019-03-19T04:01:57.511Z,0
2019-03-19T04:02:59.129Z,0
2019-03-19T04:04:00.725Z,0
2019-03-19T04:05:02.232Z,0
2019-03-19T04:06:03.844Z,0
2019-03-19T04:07:05.403Z,0
2019-03-19T04:08:07.149Z,0
2019-03-19T04:09:09.340Z,0
2019-03-19T04:10:10.412Z,0
2019-03-19T04:11:11.996Z,0
2019-03-19T04:12:14.908Z,0
2019-03-19T04:13:16.395Z,0
2019-03-19T04:14:18.051Z,0
2019-03-19T04:15:19.547Z,0
2019-03-19T04:16:21.295Z,0
2019-03-19T04:17:22.966Z,0
2019-03-19T04:18:24.612Z,0
2019-03-19T04:19:26.206Z,0
2019-03-19T04:20:27.922Z,0
2019-03-19T04:21:29.458Z,0
2019-03-19T04:22:31.278Z,0
2019-03-19T04:23:32.836Z,0
2019-03-19T04:24:34.400Z,0
2019-03-19T04:25:36.535Z,0
2019-03-19T04:26:38.158Z,0
2019-03-19T04:27:40.618Z,0
2019-03-19T04:28:41.474Z,0
2019-03-19T04:29:42.956Z,0
2019-03-19T04:30:44.585Z,0
2019-03-19T04:31:46.291Z,0
2019-03-19T04:32:47.834Z,0
2019-03-19T04:33:49.411Z,0
2019-03-19T04:34:51.148Z,0
2019-03-19T04:35:52.751Z,0
2019-03-19T04:36:54.325Z,0
2019-03-19T04:37:56.057Z,0
2019-03-19T04:38:57.475Z,0
2019-03-19T04:39:58.924Z,0
2019-03-19T04:41:00.635Z,0
2019-03-19T04:42:02.099Z,0
2019-03-19T04:43:03.883Z,0
2019-03-19T04:44:05.295Z,0
2019-03-19T04:45:06.985Z,0
2019-03-19T04:46:08.490Z,0
2019-03-19T04:47:10.279Z,0
2019-03-19T04:48:11.833Z,0
2019-03-19T04:49:13.583Z,0
2019-03-19T04:50:15.149Z,0
2019-03-19T04:51:16.676Z,0
2019-03-19T04:52:18.291Z,0
2019-03-19T04:53:19.707Z,0
2019-03-19T04:54:21.156Z,0
2019-03-19T04:55:22.828Z,0
2019-03-19T04:56:24.311Z,0
2019-03-19T04:57:26.956Z,0
2019-03-19T04:58:27.555Z,0
2019-03-19T04:59:29.072Z,0
2019-03-19T05:00:30.657Z,0
2019-03-19T05:01:32.314Z,0
2019-03-19T05:02:34.696Z,0
2019-03-19T05:03:37.470Z,0
2019-03-19T05:04:40.097Z,0
2019-03-19T05:05:42.904Z,0
2019-03-19T05:06:45.031Z,0
2019-03-19T05:07:47.998Z,0
2019-03-19T05:08:50.057Z,0
2019-03-19T05:09:51.451Z,0
2019-03-19T05:10:53.284Z,0
2019-03-19T05:11:54.888Z,4
2019-03-19T05:12:56.350Z,0
2019-03-19T05:13:58.180Z,0
2019-03-19T05:15:00.415Z,4
2019-03-19T05:16:02.319Z,4
2019-03-19T05:17:04.553Z,0
2019-03-19T05:18:06.911Z,4
2019-03-19T05:19:08.839Z,4
2019-03-19T05:20:10.359Z,4
2019-03-19T05:21:11.766Z,4
2019-03-19T05:22:13.204Z,4
2019-03-19T05:23:15.340Z,4
2019-03-19T05:24:16.784Z,8
2019-03-19T05:25:18.200Z,8
2019-03-19T05:26:19.822Z,12
2019-03-19T05:27:21.263Z,12
2019-03-19T05:28:22.923Z,16
2019-03-19T05:29:24.414Z,20
2019-03-19T05:30:26.845Z,20
2019-03-19T05:31:28.401Z,24
2019-03-19T05:32:30.038Z,24
2019-03-19T05:33:31.599Z,28
2019-03-19T05:34:33.358Z,32
2019-03-19T05:35:34.964Z,32
2019-03-19T05:36:36.552Z,40
2019-03-19T05:37:38.263Z,44
2019-03-19T05:38:39.665Z,44
2019-03-19T05:39:41.091Z,52
2019-03-19T05:40:42.806Z,56
2019-03-19T05:41:44.472Z,60
2019-03-19T05:42:46.100Z,64
2019-03-19T05:43:47.715Z,72
2019-03-19T05:44:49.348Z,76
2019-03-19T05:45:50.761Z,80
2019-03-19T05:46:52.529Z,88
2019-03-19T05:47:54.023Z,92
2019-03-19T05:48:55.761Z,100
2019-03-19T05:49:57.433Z,104
2019-03-19T05:50:59.090Z,112
2019-03-19T05:52:00.486Z,120
2019-03-19T05:53:02.118Z,124
2019-03-19T05:54:03.737Z,132
2019-03-19T05:55:05.339Z,140
2019-03-19T05:56:07.028Z,148
2019-03-19T05:57:08.733Z,152
2019-03-19T05:58:10.381Z,160
2019-03-19T05:59:12.336Z,168
2019-03-19T06:00:13.872Z,176
2019-03-19T06:01:15.397Z,184
2019-03-19T06:02:17.153Z,192
2019-03-19T06:03:18.718Z,196
2019-03-19T06:04:20.384Z,204
2019-03-19T06:05:22.180Z,212
2019-03-19T06:06:23.678Z,220
2019-03-19T06:07:25.480Z,232
2019-03-19T06:08:27.060Z,240
2019-03-19T06:09:28.916Z,248
2019-03-19T06:10:30.546Z,252
2019-03-19T06:11:32.138Z,260
2019-03-19T06:12:33.739Z,264
2019-03-19T06:13:35.313Z,272
2019-03-19T06:14:37.219Z,280
2019-03-19T06:15:38.869Z,288
2019-03-19T06:16:40.489Z,296
2019-03-19T06:17:42.298Z,304
2019-03-19T06:18:43.721Z,312
2019-03-19T06:19:45.144Z,320
2019-03-19T06:20:46.832Z,332
2019-03-19T06:21:48.227Z,340
2019-03-19T06:22:49.954Z,348
2019-03-19T06:23:51.407Z,360
2019-03-19T06:24:53.039Z,368
2019-03-19T06:25:54.497Z,384
2019-03-19T06:26:55.946Z,392
2019-03-19T06:28:00.675Z,396
2019-03-19T06:28:59.012Z,400
2019-03-19T06:30:00.464Z,416
2019-03-19T06:31:02.112Z,436
2019-03-19T06:32:03.736Z,444
2019-03-19T06:33:05.363Z,456
2019-03-19T06:34:06.843Z,484
2019-03-19T06:35:08.433Z,500
2019-03-19T06:36:09.944Z,516
2019-03-19T06:37:11.614Z,552
2019-03-19T06:38:13.210Z,620
2019-03-19T06:39:14.938Z,692
2019-03-19T06:40:16.499Z,656
2019-03-19T06:41:17.923Z,580
2019-03-19T06:42:19.836Z,560
2019-03-19T06:43:21.264Z,564
2019-03-19T06:44:22.717Z,580
2019-03-19T06:45:24.457Z,592
2019-03-19T06:46:26.102Z,616
2019-03-19T06:47:27.487Z,644
2019-03-19T06:48:29.037Z,668
2019-03-19T06:49:30.454Z,664
2019-03-19T06:50:32.154Z,696
2019-03-19T06:51:33.637Z,788
2019-03-19T06:52:35.177Z,972
2019-03-19T06:53:36.601Z,1116
2019-03-19T06:54:38.281Z,1064
2019-03-19T06:55:39.720Z,988
2019-03-19T06:56:41.147Z,992
2019-03-19T06:57:42.766Z,1064
2019-03-19T06:58:53.894Z,1196
2019-03-19T06:59:55.393Z,1356
2019-03-19T07:00:56.978Z,1452
2019-03-19T07:01:58.452Z,1496
2019-03-19T07:02:59.889Z,1564
2019-03-19T07:04:01.529Z,1660
2019-03-19T07:05:02.990Z,1864
2019-03-19T07:06:20.132Z,1936
2019-03-19T07:07:21.731Z,1824
2019-03-19T07:08:23.123Z,1920
2019-03-19T07:09:24.612Z,2096
2019-03-19T07:10:26.015Z,2168
2019-03-19T07:11:27.677Z,2212
2019-03-19T07:12:29.117Z,2232
2019-03-19T07:13:30.841Z,2244
2019-03-19T07:14:32.404Z,2264
2019-03-19T07:15:34.111Z,2308
2019-03-19T07:16:35.549Z,2336
2019-03-19T07:17:37.002Z,2384
2019-03-19T07:18:38.679Z,2440
2019-03-19T07:19:40.106Z,2484
2019-03-19T07:20:45.190Z,2520
2019-03-19T07:21:46.872Z,2536
2019-03-19T07:22:48.309Z,2552
2019-03-19T07:23:49.727Z,2572
2019-03-19T07:24:51.347Z,2592
2019-03-19T07:25:52.761Z,2624
2019-03-19T07:26:54.559Z,2656
2019-03-19T07:27:57.878Z,2680
2019-03-19T07:28:59.359Z,2700
2019-03-19T07:30:00.810Z,2672
2019-03-19T07:31:03.726Z,2648
2019-03-19T07:32:05.185Z,2604
2019-03-19T07:33:06.606Z,2524
2019-03-19T07:34:08.292Z,2436
2019-03-19T07:35:09.712Z,2360
2019-03-19T07:36:11.452Z,2260
2019-03-19T07:37:13.268Z,2216
2019-03-19T07:38:14.690Z,2188
2019-03-19T07:39:16.125Z,2120
2019-03-19T07:40:17.686Z,2044
2019-03-19T07:41:19.142Z,2072
2019-03-19T07:42:20.587Z,2104
2019-03-19T07:43:22.227Z,2040
2019-03-19T07:44:23.654Z,2044
2019-03-19T07:45:25.099Z,2216
2019-03-19T07:46:26.752Z,2448
2019-03-19T07:47:28.167Z,2380
2019-03-19T07:48:29.846Z,2284
2019-03-19T07:49:31.276Z,2116
2019-03-19T07:50:32.961Z,2064
2019-03-19T07:51:34.374Z,2096
2019-03-19T07:52:35.817Z,2148
2019-03-19T07:53:37.423Z,2180
2019-03-19T07:54:38.853Z,2140
2019-03-19T07:55:40.284Z,2120
2019-03-19T07:56:41.965Z,2168
2019-03-19T07:57:43.411Z,2232
2019-03-19T07:58:45.511Z,2196
2019-03-19T07:59:46.490Z,2008
2019-03-19T08:00:47.917Z,1832
2019-03-19T08:01:49.394Z,1784
2019-03-19T08:02:51.036Z,1772
2019-03-19T08:03:52.450Z,1728
2019-03-19T08:04:54.136Z,1708
2019-03-19T08:05:55.607Z,1712
2019-03-19T08:06:57.191Z,1772
2019-03-19T08:07:58.628Z,1888
2019-03-19T08:09:00.274Z,1924
2019-03-19T08:10:01.682Z,1928
2019-03-19T08:11:03.379Z,1984
2019-03-19T08:12:04.804Z,2004
2019-03-19T08:13:06.427Z,1912
2019-03-19T08:14:07.863Z,1840
2019-03-19T08:15:09.519Z,1856
2019-03-19T08:16:10.923Z,1904
2019-03-19T08:17:12.656Z,1984
2019-03-19T08:18:14.071Z,2168
2019-03-19T08:19:15.768Z,2284
2019-03-19T08:20:17.206Z,2376
2019-03-19T08:21:19.593Z,2384
2019-03-19T08:22:21.064Z,2412
2019-03-19T08:23:22.682Z,2432
2019-03-19T08:24:24.150Z,2436
2019-03-19T08:25:25.790Z,2388
2019-03-19T08:26:27.222Z,2544
2019-03-19T08:27:28.877Z,2904
2019-03-19T08:28:30.306Z,3276
2019-03-19T08:29:32.006Z,3476
2019-03-19T08:30:33.738Z,3560
2019-03-19T08:31:35.313Z,3672
2019-03-19T08:32:36.794Z,3812
2019-03-19T08:33:38.365Z,3932
2019-03-19T08:34:39.806Z,4004
2019-03-19T08:35:41.507Z,4000
2019-03-19T08:36:43.878Z,3924
2019-03-19T08:37:45.303Z,3804
2019-03-19T08:38:46.971Z,3776
2019-03-19T08:39:48.449Z,3740
2019-03-19T08:40:51.065Z,3756
2019-03-19T08:41:51.540Z,3844
2019-03-19T08:42:52.984Z,3924
2019-03-19T08:43:54.469Z,4204
2019-03-19T08:44:56.111Z,4452
2019-03-19T08:45:57.608Z,4660
2019-03-19T08:46:59.057Z,4756
2019-03-19T08:48:00.739Z,4880
2019-03-19T08:49:02.174Z,5000
2019-03-19T08:50:03.604Z,5080
2019-03-19T08:51:18.911Z,5212
2019-03-19T08:52:20.384Z,5376
2019-03-19T08:53:21.806Z,5564
2019-03-19T08:54:23.371Z,5396
2019-03-19T08:55:24.863Z,5460
2019-03-19T08:56:26.347Z,5440
2019-03-19T08:57:28.097Z,5572
2019-03-19T08:58:29.575Z,5844
2019-03-19T08:59:31.217Z,5616
2019-03-19T09:00:32.747Z,5672
2019-03-19T09:01:34.498Z,5644
2019-03-19T09:02:36.058Z,5340
2019-03-19T09:03:37.538Z,5996
2019-03-19T09:04:39.222Z,5900
2019-03-19T09:05:40.665Z,5044
2019-03-19T09:06:42.117Z,5976
2019-03-19T09:07:43.675Z,6372
2019-03-19T09:08:45.109Z,6596
2019-03-19T09:09:46.808Z,6708
2019-03-19T09:10:48.260Z,6652
2019-03-19T09:11:49.868Z,6680
2019-03-19T09:12:51.312Z,6904
2019-03-19T09:13:53.017Z,7028
2019-03-19T09:14:54.493Z,7260
2019-03-19T09:15:56.083Z,7380
2019-03-19T09:16:57.607Z,7680
2019-03-19T09:17:59.341Z,7856
2019-03-19T09:19:00.811Z,8116
2019-03-19T09:20:02.443Z,8340
2019-03-19T09:21:03.972Z,8856
2019-03-19T09:22:05.571Z,10220
2019-03-19T09:23:07.051Z,11280
2019-03-19T09:24:08.510Z,11896
2019-03-19T09:25:10.235Z,12236
2019-03-19T09:26:11.722Z,12184
2019-03-19T09:27:13.269Z,12396
2019-03-19T09:28:15.038Z,12424
2019-03-19T09:29:17.080Z,12612
2019-03-19T09:30:18.019Z,12256
2019-03-19T09:31:20.577Z,11636
2019-03-19T09:32:22.047Z,6848
2019-03-19T09:33:23.579Z,1136
2019-03-19T09:34:25.238Z,11416
2019-03-19T09:35:26.681Z,12472
2019-03-19T09:36:28.327Z,11204
2019-03-19T09:37:29.776Z,1620
2019-03-19T09:38:31.487Z,10108
2019-03-19T09:39:33.004Z,13044
2019-03-19T09:40:34.739Z,14240
2019-03-19T09:41:36.209Z,13192
2019-03-19T09:42:37.840Z,13064
2019-03-19T09:43:39.320Z,15520
2019-03-19T09:44:42.733Z,16064
2019-03-19T09:45:44.200Z,15872
2019-03-19T09:46:45.765Z,14048
2019-03-19T09:47:47.493Z,13308
2019-03-19T09:48:48.948Z,16096
2019-03-19T09:49:50.392Z,19392
2019-03-19T09:50:51.968Z,19072
2019-03-19T09:51:53.471Z,17952
2019-03-19T09:52:55.122Z,15424
2019-03-19T09:53:56.668Z,13664
2019-03-19T09:54:58.349Z,13728
2019-03-19T09:55:59.785Z,15840
2019-03-19T09:57:01.472Z,11288
2019-03-19T09:58:03.025Z,15168
2019-03-19T09:59:04.473Z,18080
2019-03-19T10:00:06.231Z,18784
2019-03-19T10:01:07.672Z,16672
2019-03-19T10:02:09.135Z,15200
2019-03-19T10:03:10.772Z,17344
2019-03-19T10:04:12.602Z,21216
2019-03-19T10:05:14.072Z,22080
2019-03-19T10:06:15.640Z,20704
2019-03-19T10:07:17.091Z,19232
2019-03-19T10:08:18.553Z,19008
2019-03-19T10:09:20.175Z,19136
2019-03-19T10:10:21.760Z,20672
2019-03-19T10:11:23.136Z,21472
2019-03-19T10:12:24.683Z,22144
2019-03-19T10:13:26.178Z,22752
2019-03-19T10:14:27.630Z,22624
2019-03-19T10:15:29.222Z,21376
2019-03-19T10:16:30.757Z,21024
2019-03-19T10:17:32.252Z,19392
2019-03-19T10:18:33.945Z,19520
2019-03-19T10:19:35.788Z,20960
2019-03-19T10:20:37.539Z,23232
2019-03-19T10:21:39.168Z,23808
2019-03-19T10:22:40.699Z,13964
2019-03-19T10:23:42.168Z,23744
2019-03-19T10:24:43.990Z,21664
2019-03-19T10:25:45.471Z,15904
2019-03-19T10:26:47.130Z,12960
2019-03-19T10:27:48.970Z,14688
2019-03-19T10:28:50.706Z,18784
2019-03-19T10:29:52.225Z,21824
2019-03-19T10:30:53.961Z,15008
2019-03-19T10:31:55.553Z,10056
2019-03-19T10:32:57.255Z,2124
2019-03-19T10:33:58.773Z,1584
2019-03-19T10:35:00.888Z,1480
2019-03-19T10:36:02.618Z,1476
2019-03-19T10:37:04.166Z,1508
2019-03-19T10:38:05.652Z,1644
2019-03-19T10:39:08.905Z,1808
2019-03-19T10:40:08.825Z,2076
2019-03-19T10:41:10.355Z,2804
2019-03-19T10:42:11.975Z,4408
2019-03-19T10:43:13.467Z,4052
2019-03-19T10:44:14.936Z,3168
2019-03-19T10:45:17.098Z,3768
2019-03-19T10:46:18.841Z,3428
2019-03-19T10:47:20.486Z,3444
2019-03-19T10:48:21.923Z,2868
2019-03-19T10:49:23.583Z,2660
2019-03-19T10:50:25.064Z,3200
2019-03-19T10:51:26.654Z,3296
2019-03-19T10:52:28.166Z,3692
2019-03-19T10:53:30.132Z,4628
2019-03-19T10:54:32.582Z,4568
2019-03-19T10:55:34.202Z,4272
2019-03-19T10:56:35.745Z,3764
2019-03-19T10:57:37.342Z,3644
2019-03-19T10:58:38.886Z,3004
2019-03-19T10:59:48.800Z,2864
2019-03-19T11:00:42.071Z,2344
2019-03-19T11:01:43.744Z,2224
2019-03-19T11:02:45.254Z,2084
2019-03-19T11:03:46.994Z,2084
2019-03-19T11:04:48.550Z,2044
2019-03-19T11:05:50.034Z,1992
2019-03-19T11:06:51.480Z,2040
2019-03-19T11:07:52.935Z,2464
2019-03-19T11:08:54.517Z,3060
2019-03-19T11:09:56.024Z,3648
2019-03-19T11:10:57.566Z,3908
2019-03-19T11:11:59.056Z,3936
2019-03-19T11:13:00.714Z,4120
2019-03-19T11:14:02.183Z,4104
2019-03-19T11:15:03.750Z,3596
2019-03-19T11:16:05.193Z,3172
2019-03-19T11:17:06.848Z,2744
2019-03-19T11:18:08.369Z,2436
2019-03-19T11:19:09.988Z,2200
2019-03-19T11:20:11.427Z,1968
2019-03-19T11:21:12.849Z,1780
2019-03-19T11:22:14.568Z,1808
2019-03-19T11:23:16.066Z,1752
2019-03-19T11:24:17.559Z,1772
2019-03-19T11:25:19.255Z,1920
2019-03-19T11:26:20.764Z,1968
2019-03-19T11:27:22.239Z,1936
2019-03-19T11:28:23.740Z,2080
2019-03-19T11:29:25.172Z,2484
2019-03-19T11:30:26.620Z,2716
2019-03-19T11:31:28.276Z,2416
2019-03-19T11:32:29.762Z,2108
2019-03-19T11:33:31.398Z,2000
2019-03-19T11:34:32.895Z,1992
2019-03-19T11:35:34.352Z,2044
2019-03-19T11:36:35.996Z,1992
2019-03-19T11:37:37.440Z,1900
2019-03-19T11:38:39.012Z,1836
2019-03-19T11:39:40.646Z,1812
2019-03-19T11:40:42.039Z,1764
2019-03-19T11:41:44.062Z,1700
2019-03-19T11:42:45.626Z,1656
2019-03-19T11:43:47.235Z,1612
2019-03-19T11:44:48.778Z,1568
2019-03-19T11:45:50.332Z,1544
2019-03-19T11:46:53.500Z,1556
2019-03-19T11:47:53.418Z,1632
2019-03-19T11:48:55.119Z,1572
2019-03-19T11:49:56.795Z,1580
2019-03-19T11:50:58.350Z,1592
2019-03-19T11:51:59.831Z,1612
2019-03-19T11:53:01.586Z,1600
2019-03-19T11:54:03.082Z,1712
2019-03-19T11:55:04.564Z,1808
2019-03-19T11:56:06.168Z,2416
2019-03-19T11:57:07.838Z,3056
2019-03-19T11:58:09.406Z,3096
2019-03-19T11:59:10.919Z,2636
2019-03-19T12:00:12.549Z,2700
2019-03-19T12:01:14.047Z,2788
2019-03-19T12:02:25.402Z,2864
2019-03-19T12:03:17.211Z,3012
2019-03-19T12:04:19.445Z,3000
2019-03-19T12:05:22.002Z,2988
2019-03-19T12:06:23.473Z,2972
2019-03-19T12:07:25.968Z,3156
2019-03-19T12:08:27.544Z,3036
2019-03-19T12:09:29.139Z,2916
2019-03-19T12:10:30.578Z,2804
2019-03-19T12:11:32.260Z,2768
2019-03-19T12:12:33.804Z,2652
2019-03-19T12:13:35.274Z,2112
2019-03-19T12:14:36.808Z,1788
2019-03-19T12:15:38.294Z,1640
2019-03-19T12:16:39.724Z,1508
2019-03-19T12:17:41.302Z,1396
2019-03-19T12:18:42.763Z,1328
2019-03-19T12:19:44.352Z,1304
2019-03-19T12:20:46.056Z,1292
2019-03-19T12:21:47.525Z,1292
2019-03-19T12:22:49.134Z,1328
2019-03-19T12:23:50.640Z,1332
2019-03-19T12:24:52.228Z,1328
2019-03-19T12:25:53.713Z,1336
2019-03-19T12:26:55.310Z,1324
2019-03-19T12:27:57.071Z,1320
2019-03-19T12:28:59.237Z,1292
2019-03-19T12:30:00.723Z,1236
2019-03-19T12:31:02.610Z,1272
2019-03-19T12:32:04.178Z,1264
2019-03-19T12:33:05.716Z,1264
2019-03-19T12:34:07.173Z,1580
2019-03-19T12:35:08.881Z,1992
2019-03-19T12:36:10.326Z,1920
2019-03-19T12:37:11.993Z,1744
2019-03-19T12:38:13.490Z,1788
2019-03-19T12:39:15.088Z,1748
2019-03-19T12:40:16.587Z,1612
2019-03-19T12:41:18.068Z,1604
2019-03-19T12:42:19.756Z,1552
2019-03-19T12:43:21.258Z,1556
2019-03-19T12:44:22.723Z,1904
2019-03-19T12:45:24.321Z,2128
2019-03-19T12:46:25.818Z,2396
2019-03-19T12:47:27.396Z,2496
2019-03-19T12:48:28.908Z,2160
2019-03-19T12:49:30.476Z,1900
2019-03-19T12:50:31.933Z,1864
2019-03-19T12:51:33.410Z,2316
2019-03-19T12:52:35.189Z,2560
2019-03-19T12:53:36.687Z,2604
2019-03-19T12:54:38.221Z,1924
2019-03-19T12:55:39.926Z,1584
2019-03-19T12:56:41.356Z,1788
2019-03-19T12:57:42.943Z,1724
2019-03-19T12:58:44.430Z,1660
2019-03-19T12:59:46.087Z,1584
2019-03-19T13:00:47.565Z,1488
2019-03-19T13:01:49.187Z,1408
2019-03-19T13:02:50.658Z,1060
2019-03-19T13:03:52.251Z,996
2019-03-19T13:04:53.779Z,1292
2019-03-19T13:05:55.332Z,1264
2019-03-19T13:06:56.858Z,1936
2019-03-19T13:07:58.376Z,2012
2019-03-19T13:08:59.800Z,2236
2019-03-19T13:10:01.329Z,2536
2019-03-19T13:11:02.823Z,2148
2019-03-19T13:12:04.394Z,1904
2019-03-19T13:13:05.809Z,2044
2019-03-19T13:14:07.463Z,1956
2019-03-19T13:15:08.989Z,1956
2019-03-19T13:16:10.626Z,2148
2019-03-19T13:17:12.156Z,1924
2019-03-19T13:18:13.687Z,1680
2019-03-19T13:19:15.116Z,1212
2019-03-19T13:20:16.735Z,1028
2019-03-19T13:21:18.149Z,1168
2019-03-19T13:22:19.819Z,1220
2019-03-19T13:23:21.262Z,1092
2019-03-19T13:24:22.916Z,1284
2019-03-19T13:25:24.339Z,984
2019-03-19T13:26:25.993Z,924
2019-03-19T13:27:27.443Z,956
2019-03-19T13:28:29.112Z,1116
2019-03-19T13:29:30.614Z,1100
2019-03-19T13:30:32.208Z,1056
2019-03-19T13:31:33.702Z,1108
2019-03-19T13:32:35.301Z,1172
2019-03-19T13:33:36.786Z,1160
2019-03-19T13:34:38.432Z,1084
2019-03-19T13:35:39.940Z,1168
2019-03-19T13:36:41.693Z,1280
2019-03-19T13:37:43.192Z,1464
2019-03-19T13:38:44.786Z,1716
2019-03-19T13:39:46.282Z,1908
2019-03-19T13:40:47.877Z,1828
2019-03-19T13:41:49.353Z,1796
2019-03-19T13:42:50.819Z,2052
2019-03-19T13:43:52.367Z,2044
2019-03-19T13:44:53.840Z,1984
2019-03-19T13:45:55.317Z,1756
2019-03-19T13:46:56.907Z,1428
2019-03-19T13:47:58.370Z,1312
2019-03-19T13:48:59.978Z,1440
2019-03-19T13:50:01.511Z,1508
2019-03-19T13:51:03.067Z,1464
2019-03-19T13:52:04.535Z,1320
2019-03-19T13:53:06.043Z,1320
2019-03-19T13:54:08.412Z,1288
2019-03-19T13:55:09.885Z,1460
2019-03-19T13:56:11.378Z,1808
2019-03-19T13:57:12.956Z,1748
2019-03-19T13:58:14.436Z,1588
2019-03-19T13:59:16.007Z,1548
2019-03-19T14:00:17.455Z,1388
2019-03-19T14:01:18.881Z,1244
2019-03-19T14:02:20.307Z,1072
2019-03-19T14:03:22.012Z,912
2019-03-19T14:04:23.487Z,836
2019-03-19T14:05:24.933Z,804
2019-03-19T14:06:26.502Z,764
2019-03-19T14:07:27.985Z,712
2019-03-19T14:08:29.567Z,752
2019-03-19T14:09:31.047Z,828
2019-03-19T14:10:32.676Z,748
2019-03-19T14:11:34.267Z,724
2019-03-19T14:12:35.949Z,716
2019-03-19T14:13:37.435Z,696
2019-03-19T14:14:39.119Z,684
2019-03-19T14:15:40.577Z,664